createdAt,value
2022-11-05T00:00:37.290Z,423.57
2022-11-05T00:03:23.198Z,420.80
2022-11-05T00:06:16.037Z,429.50
2022-11-05T00:09:01.366Z,430.40
2022-11-05T00:11:46.546Z,428.40
2022-11-05T00:14:32.963Z,434.77
2022-11-05T00:16:59.788Z,437.23
2022-11-05T00:19:26.507Z,435.05
2022-11-05T00:22:11.667Z,443.20
2022-11-05T00:24:56.880Z,442.20
2022-11-05T00:27:23.664Z,452.50
2022-11-05T00:29:50.292Z,449.02
2022-11-05T00:32:16.979Z,459.50
2022-11-05T00:34:43.659Z,466.88
2022-11-05T00:37:10.231Z,464.13
2022-11-05T00:39:37.185Z,467.55
2022-11-05T00:42:42.279Z,466.90
2022-11-05T00:45:09.542Z,461.02
2022-11-05T00:47:54.910Z,468.35
2022-11-05T00:50:22.653Z,468.88
2022-11-05T00:52:56.759Z,467.40
2022-11-05T00:55:29.227Z,464.08
2022-11-05T00:57:57.508Z,457.92
2022-11-05T01:00:27.351Z,460.17
2022-11-05T01:02:56.789Z,467.63
2022-11-05T01:05:23.601Z,470.75
2022-11-05T01:07:52.208Z,474.13
2022-11-05T01:10:19.513Z,479.40
2022-11-05T01:12:46.116Z,472.90
2022-11-05T01:15:12.968Z,478.73
2022-11-05T01:17:39.548Z,473.60
2022-11-05T01:20:06.409Z,472.40
2022-11-05T01:22:32.964Z,478.27
2022-11-05T01:24:59.550Z,479.17
2022-11-05T01:27:26.109Z,475.33
2022-11-05T01:29:52.684Z,472.70
2022-11-05T01:32:19.215Z,472.13
2022-11-05T01:34:45.812Z,463.40
2022-11-05T01:37:13.682Z,467.27
2022-11-05T01:39:40.261Z,474.08
2022-11-05T01:42:25.149Z,473.92
2022-11-05T01:45:12.743Z,482.35
2022-11-05T01:47:59.808Z,489.45
2022-11-05T01:50:29.266Z,492.90
2022-11-05T01:53:08.497Z,488.87
2022-11-05T01:55:41.326Z,490.27
2022-11-05T01:58:10.901Z,489.27
2022-11-05T02:00:37.779Z,470.05
2022-11-05T02:03:04.787Z,469.70
2022-11-05T02:05:33.147Z,474.55
2022-11-05T02:08:00.089Z,474.97
2022-11-05T02:10:27.351Z,473.63
2022-11-05T02:12:54.541Z,465.95
2022-11-05T02:16:10.668Z,459.17
2022-11-05T02:18:56.615Z,464.95
2022-11-05T02:21:36.313Z,471.63
2022-11-05T02:24:15.231Z,468.23
2022-11-05T02:27:00.721Z,468.35
2022-11-05T02:29:51.617Z,468.30
2022-11-05T02:32:30.970Z,457.73
2022-11-05T02:35:09.375Z,448.38
2022-11-05T02:37:41.176Z,448.52
2022-11-05T02:40:33.053Z,449.05
2022-11-05T02:43:17.606Z,454.25
2022-11-05T02:46:26.672Z,459.63
2022-11-05T02:49:32.312Z,454.98
2022-11-05T02:52:04.202Z,455.35
2022-11-05T02:55:20.190Z,457.15
2022-11-05T02:57:47.960Z,462.23
2022-11-05T03:00:41.074Z,459.63
2022-11-05T03:03:34.605Z,465.55
2022-11-05T03:06:26.319Z,473.65
2022-11-05T03:09:03.248Z,477.58
2022-11-05T03:11:38.985Z,478.00
2022-11-05T03:14:25.209Z,482.95
2022-11-05T03:17:09.906Z,483.13
2022-11-05T03:19:48.046Z,484.02
2022-11-05T03:22:22.251Z,483.83
2022-11-05T03:24:57.929Z,482.52
2022-11-05T03:27:29.936Z,485.33
2022-11-05T03:30:03.438Z,486.90
2022-11-05T03:32:34.721Z,476.33
2022-11-05T03:35:07.314Z,482.20
2022-11-05T03:37:37.514Z,474.80
2022-11-05T03:40:07.491Z,480.50
2022-11-05T03:42:38.662Z,473.27
2022-11-05T03:45:18.464Z,472.83
2022-11-05T03:47:50.834Z,479.48
2022-11-05T03:50:28.605Z,485.08
2022-11-05T03:53:03.173Z,484.90
2022-11-05T03:55:38.658Z,477.67
2022-11-05T03:58:06.040Z,479.20
2022-11-05T04:00:33.400Z,474.38
2022-11-05T04:03:00.065Z,478.80
2022-11-05T04:05:26.696Z,470.05
2022-11-05T04:08:25.694Z,473.88
2022-11-05T04:11:11.292Z,474.98
2022-11-05T04:13:37.926Z,471.08
2022-11-05T04:16:23.685Z,468.13
2022-11-05T04:18:50.410Z,465.30
2022-11-05T04:21:35.556Z,466.63
2022-11-05T04:24:11.092Z,469.20
2022-11-05T04:26:43.684Z,457.45
2022-11-05T04:29:29.221Z,462.83
2022-11-05T04:31:56.214Z,468.00
2022-11-05T04:34:23.295Z,467.37
2022-11-05T04:36:51.522Z,463.30
2022-11-05T04:39:19.235Z,467.98
2022-11-05T04:41:48.197Z,465.30
2022-11-05T04:44:16.286Z,463.60
2022-11-05T04:46:42.904Z,461.92
2022-11-05T04:49:09.637Z,467.63
2022-11-05T04:51:36.388Z,463.65
2022-11-05T04:54:03.038Z,455.17
2022-11-05T04:56:29.632Z,464.85
2022-11-05T04:58:58.631Z,459.17
2022-11-05T05:01:25.712Z,465.67
2022-11-05T05:03:54.026Z,468.55
2022-11-05T05:06:21.556Z,481.77
2022-11-05T05:08:49.414Z,468.15
2022-11-05T05:11:18.942Z,465.17
2022-11-05T05:13:46.296Z,467.65
2022-11-05T05:16:24.869Z,468.93
2022-11-05T05:18:52.725Z,464.45
2022-11-05T05:21:39.253Z,462.98
2022-11-05T05:24:11.152Z,457.00
2022-11-05T05:26:40.416Z,458.48
2022-11-05T05:29:07.447Z,452.93
2022-11-05T05:31:34.735Z,456.58
2022-11-05T05:34:01.452Z,443.38
2022-11-05T05:36:29.202Z,446.30
2022-11-05T05:38:55.827Z,453.00
2022-11-05T05:41:22.416Z,453.73
2022-11-05T05:43:49.309Z,452.23
2022-11-05T05:46:17.851Z,452.70
2022-11-05T05:48:49.066Z,454.25
2022-11-05T05:51:15.650Z,452.00
2022-11-05T05:53:42.393Z,447.05
2022-11-05T05:56:09.070Z,457.53
2022-11-05T05:58:37.945Z,439.00
2022-11-05T06:01:17.201Z,447.10
2022-11-05T06:03:45.468Z,455.67
2022-11-05T06:06:13.726Z,474.38
2022-11-05T06:08:41.001Z,481.43
2022-11-05T06:11:08.425Z,484.95
2022-11-05T06:13:36.480Z,476.10
2022-11-05T06:16:05.755Z,478.15
2022-11-05T06:18:33.131Z,477.58
2022-11-05T06:21:09.386Z,477.65
2022-11-05T06:23:37.958Z,468.60
2022-11-05T06:26:08.172Z,465.90
2022-11-05T06:28:35.097Z,459.67
2022-11-05T06:31:03.730Z,453.63
2022-11-05T06:33:30.517Z,451.63
2022-11-05T06:36:01.847Z,441.02
2022-11-05T06:38:31.262Z,440.27
2022-11-05T06:40:59.349Z,458.67
2022-11-05T06:43:26.843Z,458.30
2022-11-05T06:45:53.800Z,435.88
2022-11-05T06:48:20.960Z,471.20
2022-11-05T06:50:48.049Z,461.20
2022-11-05T06:53:14.997Z,472.35
2022-11-05T06:55:41.654Z,466.58
2022-11-05T06:58:08.253Z,461.77
2022-11-05T07:00:34.997Z,465.33
2022-11-05T07:03:06.456Z,470.52
2022-11-05T07:05:35.183Z,475.90
2022-11-05T07:08:01.755Z,471.50
2022-11-05T07:10:28.367Z,471.77
2022-11-05T07:12:55.153Z,472.38
2022-11-05T07:15:21.892Z,475.95
2022-11-05T07:17:49.028Z,451.60
2022-11-05T07:20:15.868Z,441.90
2022-11-05T07:22:42.506Z,441.58
2022-11-05T07:25:09.269Z,456.27
2022-11-05T07:27:40.186Z,459.17
2022-11-05T07:30:10.443Z,453.23
2022-11-05T07:32:38.830Z,448.15
2022-11-05T07:35:06.556Z,438.30
2022-11-05T07:37:33.178Z,435.05
2022-11-05T07:39:59.956Z,440.48
2022-11-05T07:42:26.639Z,446.55
2022-11-05T07:44:53.208Z,449.95
2022-11-05T07:47:22.846Z,443.70
2022-11-05T07:49:49.474Z,452.90
2022-11-05T07:52:16.270Z,435.52
2022-11-05T07:54:46.367Z,431.50
2022-11-05T07:57:18.908Z,427.30
2022-11-05T07:59:46.471Z,438.73
2022-11-05T08:02:13.557Z,433.55
2022-11-05T08:04:42.870Z,472.83
2022-11-05T08:07:11.367Z,466.73
2022-11-05T08:09:38.513Z,465.58
2022-11-05T08:12:05.718Z,466.38
2022-11-05T08:14:32.268Z,477.35
2022-11-05T08:16:58.917Z,453.88
2022-11-05T08:19:25.593Z,462.10
2022-11-05T08:21:52.379Z,463.00
2022-11-05T08:24:18.940Z,468.67
2022-11-05T08:26:45.588Z,457.48
2022-11-05T08:29:12.309Z,470.65
2022-11-05T08:31:38.934Z,464.33
2022-11-05T08:34:06.021Z,455.40
2022-11-05T08:36:34.967Z,447.73
2022-11-05T08:39:01.682Z,461.10
2022-11-05T08:41:28.566Z,478.05
2022-11-05T08:43:56.320Z,469.92
2022-11-05T08:46:22.863Z,471.60
2022-11-05T08:48:50.033Z,467.25
2022-11-05T08:51:16.692Z,470.25
2022-11-05T08:53:43.296Z,448.63
2022-11-05T08:56:12.311Z,432.17
2022-11-05T08:58:38.932Z,420.83
2022-11-05T09:01:05.797Z,392.38
2022-11-05T09:03:32.668Z,389.48
2022-11-05T09:05:59.390Z,412.52
2022-11-05T09:08:25.986Z,386.77
2022-11-05T09:10:52.685Z,400.45
2022-11-05T09:13:20.474Z,386.35
2022-11-05T09:15:48.807Z,357.40
2022-11-05T09:18:17.295Z,387.55
2022-11-05T09:20:44.459Z,400.48
2022-11-05T09:23:15.026Z,394.77
2022-11-05T09:41:40.014Z,384.73
2022-11-05T09:44:20.082Z,385.20
2022-11-05T09:46:52.674Z,382.98
2022-11-05T09:49:42.374Z,384.10
2022-11-05T09:52:18.552Z,394.35
2022-11-05T09:54:46.127Z,392.92
2022-11-05T09:57:20.626Z,416.35
2022-11-05T09:59:52.156Z,396.65
2022-11-05T10:02:57.736Z,395.70
2022-11-05T10:05:26.246Z,392.98
2022-11-05T10:08:05.122Z,386.88
2022-11-05T10:10:55.035Z,407.85
2022-11-05T10:13:22.168Z,395.77
2022-11-05T10:15:57.518Z,392.15
2022-11-05T10:18:36.974Z,376.20
2022-11-05T10:21:04.203Z,371.23
2022-11-05T10:23:31.056Z,377.95
2022-11-05T10:26:10.613Z,365.38
2022-11-05T10:28:37.610Z,349.45
2022-11-05T10:31:08.545Z,368.85
2022-11-05T10:33:45.816Z,369.05
2022-11-05T10:36:20.976Z,359.33
2022-11-05T10:38:47.780Z,376.30
2022-11-05T10:41:26.575Z,378.52
2022-11-05T10:44:19.394Z,370.60
2022-11-05T10:46:57.013Z,367.75
2022-11-05T10:49:44.823Z,358.65
2022-11-05T10:52:23.980Z,480.65
2022-11-05T10:54:53.851Z,472.05
2022-11-05T10:57:41.186Z,484.73
2022-11-05T11:00:14.861Z,466.90
2022-11-05T11:02:43.010Z,487.35
2022-11-05T11:05:21.438Z,485.52
2022-11-05T11:07:57.608Z,473.58
2022-11-05T11:10:25.723Z,383.85
2022-11-05T11:12:56.943Z,351.40
2022-11-05T11:15:29.543Z,360.50
2022-11-05T11:17:56.642Z,362.15
2022-11-05T11:20:32.838Z,388.48
2022-11-05T11:23:33.208Z,378.27
2022-11-05T11:26:01.549Z,371.92
2022-11-05T11:28:38.241Z,372.13
2022-11-05T11:31:13.505Z,376.10
2022-11-05T11:33:43.622Z,375.20
2022-11-05T11:36:12.049Z,373.95
2022-11-05T11:38:40.161Z,346.58
2022-11-05T11:41:31.520Z,335.05
2022-11-05T11:44:04.637Z,335.08
2022-11-05T11:46:34.288Z,347.02
2022-11-05T11:49:01.355Z,363.35
2022-11-05T11:51:40.695Z,368.58
2022-11-05T11:54:20.786Z,361.58
2022-11-05T11:56:48.599Z,348.73
2022-11-05T11:59:53.851Z,316.48
2022-11-05T12:02:38.409Z,300.08
2022-11-05T12:05:26.408Z,261.15
2022-11-05T12:08:03.791Z,256.07
2022-11-05T12:10:59.498Z,259.10
2022-11-05T12:13:37.243Z,245.13
2022-11-05T12:16:35.009Z,231.85
2022-11-05T12:19:23.320Z,252.88
2022-11-05T12:22:03.664Z,266.48
2022-11-05T12:24:40.932Z,299.20
2022-11-05T12:27:26.344Z,347.88
2022-11-05T12:30:04.656Z,354.77
2022-11-05T12:33:13.508Z,352.33
2022-11-05T12:36:14.616Z,347.38
2022-11-05T12:39:30.510Z,371.70
2022-11-05T12:42:07.511Z,367.33
2022-11-05T12:44:42.940Z,391.27
2022-11-05T12:47:21.536Z,343.25
2022-11-05T12:50:19.653Z,353.63
2022-11-05T12:52:55.430Z,370.35
2022-11-05T12:55:25.228Z,342.35
2022-11-05T12:57:58.175Z,308.10
2022-11-05T13:00:27.943Z,323.48
2022-11-05T13:03:20.537Z,325.02
2022-11-05T13:06:07.584Z,333.95
2022-11-05T13:08:44.701Z,317.30
2022-11-05T13:11:17.369Z,339.15
2022-11-05T13:13:53.349Z,342.75
2022-11-05T13:16:37.299Z,352.48
2022-11-05T13:19:21.909Z,369.27
2022-11-05T13:21:54.571Z,362.95
2022-11-05T13:24:29.973Z,377.98
2022-11-05T13:27:03.472Z,364.57
2022-11-05T13:29:43.028Z,351.55
2022-11-05T13:32:27.323Z,360.70
2022-11-05T13:35:07.164Z,378.75
2022-11-05T13:38:01.177Z,425.63
2022-11-05T13:40:39.210Z,364.40
2022-11-05T13:43:26.936Z,368.55
2022-11-05T13:46:15.117Z,343.63
2022-11-05T13:49:37.341Z,341.73
2022-11-05T13:52:40.149Z,344.17
2022-11-05T13:55:43.924Z,345.73
2022-11-05T13:58:11.843Z,351.88
2022-11-05T14:00:55.225Z,356.17
2022-11-05T14:03:25.345Z,351.08
2022-11-05T14:06:00.788Z,350.02
2022-11-05T14:08:43.846Z,334.33
2022-11-05T14:11:31.128Z,330.60
2022-11-05T14:14:01.997Z,332.42
2022-11-05T14:16:47.481Z,325.65
2022-11-05T14:19:20.408Z,358.23
2022-11-05T14:21:55.992Z,345.95
2022-11-05T14:24:29.797Z,384.58
2022-11-05T14:27:06.779Z,395.73
2022-11-05T14:29:47.443Z,431.40
2022-11-05T14:32:20.151Z,440.00
2022-11-05T14:35:00.849Z,453.37
2022-11-05T14:37:36.358Z,432.65
2022-11-05T14:40:38.938Z,416.83
2022-11-05T14:43:18.750Z,414.58
2022-11-05T14:46:02.033Z,408.70
2022-11-05T14:48:50.321Z,390.45
2022-11-05T14:51:41.768Z,391.98
2022-11-05T14:54:18.136Z,410.92
2022-11-05T14:56:59.958Z,400.20
2022-11-05T14:59:31.619Z,408.52
2022-11-05T15:02:14.656Z,424.75
2022-11-05T15:04:47.107Z,418.95
2022-11-05T15:07:35.746Z,421.88
2022-11-05T15:10:10.546Z,435.77
2022-11-05T15:12:55.347Z,426.08
2022-11-05T15:15:30.011Z,452.30
2022-11-05T15:17:58.396Z,442.90
2022-11-05T15:20:40.215Z,451.27
2022-11-05T15:23:25.678Z,468.55
2022-11-05T15:26:10.078Z,462.67
2022-11-05T15:28:53.273Z,475.85
2022-11-05T15:31:23.747Z,468.30
2022-11-05T15:34:00.237Z,452.27
2022-11-05T15:36:34.159Z,451.63
2022-11-05T15:39:29.099Z,446.33
2022-11-05T15:41:52.073Z,459.17
2022-11-05T15:44:31.345Z,447.90
2022-11-05T15:47:20.508Z,451.95
2022-11-05T15:50:00.374Z,440.58
2022-11-05T15:52:42.242Z,452.48
2022-11-05T15:55:11.972Z,445.52
2022-11-05T15:57:47.856Z,427.17
2022-11-05T16:00:20.507Z,446.50
2022-11-05T16:02:59.741Z,454.45
2022-11-05T16:05:32.557Z,463.17
2022-11-05T16:08:01.229Z,450.05
2022-11-05T16:10:31.413Z,433.35
2022-11-05T16:13:18.275Z,432.53
2022-11-05T16:15:57.135Z,436.27
2022-11-05T16:18:25.985Z,431.50
2022-11-05T16:21:11.332Z,434.80
2022-11-05T16:23:58.359Z,410.40
2022-11-05T16:27:01.765Z,415.40
2022-11-05T16:29:40.971Z,416.23
2022-11-05T16:32:28.633Z,416.83
2022-11-05T16:35:02.794Z,428.10
2022-11-05T16:37:37.127Z,434.10
2022-11-05T16:40:13.303Z,425.23
2022-11-05T16:42:41.415Z,428.88
2022-11-05T16:45:13.771Z,445.58
2022-11-05T16:47:44.275Z,438.13
2022-11-05T16:50:32.148Z,425.47
2022-11-05T16:52:58.870Z,427.00
2022-11-05T16:55:25.501Z,429.77
2022-11-05T16:57:56.912Z,424.15
2022-11-05T17:00:25.400Z,425.92
2022-11-05T17:02:52.844Z,419.95
2022-11-05T17:05:22.497Z,420.48
2022-11-05T17:07:49.164Z,418.67
2022-11-05T17:10:20.814Z,408.83
2022-11-05T17:12:48.205Z,416.40
2022-11-05T17:15:17.860Z,419.20
2022-11-05T17:17:44.971Z,432.17
2022-11-05T17:20:27.822Z,435.17
2022-11-05T17:22:55.317Z,426.38
2022-11-05T17:25:24.065Z,439.33
2022-11-05T17:27:50.984Z,442.33
2022-11-05T17:30:17.927Z,433.03
2022-11-05T17:32:44.925Z,426.48
2022-11-05T17:35:14.240Z,428.55
2022-11-05T17:37:41.696Z,410.77
2022-11-05T17:40:15.569Z,426.58
2022-11-05T17:42:42.653Z,424.25
2022-11-05T17:45:10.775Z,423.20
2022-11-05T17:47:37.944Z,414.60
2022-11-05T17:50:06.024Z,415.17
2022-11-05T17:52:50.275Z,425.83
2022-11-05T17:55:17.467Z,429.67
2022-11-05T17:57:49.009Z,423.38
2022-11-05T18:00:23.848Z,416.40
2022-11-05T18:02:53.108Z,416.50
2022-11-05T18:05:27.719Z,422.02
2022-11-05T18:07:58.417Z,420.23
2022-11-05T18:10:25.514Z,418.87
2022-11-05T18:12:52.538Z,418.15
2022-11-05T18:15:19.307Z,415.33
2022-11-05T18:17:46.551Z,431.10
2022-11-05T18:20:18.986Z,426.23
2022-11-05T18:22:49.184Z,424.58
2022-11-05T18:25:16.794Z,415.17
2022-11-05T18:27:46.296Z,428.30
2022-11-05T18:30:15.577Z,414.67
2022-11-05T18:32:45.428Z,406.83
2022-11-05T18:35:14.447Z,414.60
2022-11-05T18:37:41.795Z,406.80
2022-11-05T18:40:09.061Z,415.63
2022-11-05T18:42:36.131Z,413.70
2022-11-05T18:45:03.161Z,408.27
2022-11-05T18:47:32.418Z,416.50
2022-11-05T18:49:59.739Z,408.48
2022-11-05T18:52:28.273Z,410.83
2022-11-05T18:54:54.959Z,414.48
2022-11-05T18:57:21.592Z,412.67
2022-11-05T18:59:48.474Z,416.48
2022-11-05T19:02:15.538Z,412.27
2022-11-05T19:05:00.423Z,408.98
2022-11-05T19:07:29.904Z,416.17
2022-11-05T19:09:56.620Z,411.23
2022-11-05T19:12:23.280Z,404.50
2022-11-05T19:14:50.010Z,411.42
2022-11-05T19:17:16.665Z,411.52
2022-11-05T19:19:43.302Z,411.38
2022-11-05T19:22:10.378Z,415.30
2022-11-05T19:24:37.055Z,432.17
2022-11-05T19:27:03.793Z,415.13
2022-11-05T19:29:30.627Z,418.75
2022-11-05T19:31:57.471Z,418.23
2022-11-05T19:34:24.148Z,420.23
2022-11-05T19:36:50.887Z,401.60
2022-11-05T19:39:17.517Z,411.40
2022-11-05T19:41:44.246Z,411.73
2022-11-05T19:44:11.264Z,407.48
2022-11-05T19:46:38.457Z,408.85
2022-11-05T19:49:05.370Z,416.23
2022-11-05T19:51:32.766Z,413.67
2022-11-05T19:54:01.397Z,411.05
2022-11-05T20:35:45.995Z,412.65
2022-11-05T20:38:13.010Z,404.80
2022-11-05T20:40:39.977Z,399.80
2022-11-05T20:43:06.535Z,406.05
2022-11-05T20:45:33.116Z,402.55
2022-11-05T20:47:59.653Z,411.85
2022-11-05T20:50:26.267Z,403.48
2022-11-05T20:52:52.840Z,415.13
2022-11-05T20:55:19.391Z,422.38
2022-11-05T20:57:45.872Z,417.27
2022-11-05T21:00:13.302Z,422.58
2022-11-05T21:02:41.102Z,415.10
2022-11-05T21:05:08.760Z,435.60
2022-11-05T21:07:35.391Z,420.57
2022-11-05T21:10:02.082Z,421.63
2022-11-05T21:12:28.618Z,418.45
2022-11-05T21:14:55.320Z,407.75
2022-11-05T21:17:21.876Z,407.05
2022-11-05T21:19:48.399Z,404.87
2022-11-05T21:22:15.466Z,413.05
2022-11-05T21:24:43.091Z,403.67
2022-11-05T21:27:09.757Z,380.92
2022-11-05T21:29:37.146Z,391.73
2022-11-05T21:32:03.842Z,383.33
2022-11-05T21:34:30.685Z,380.10
2022-11-05T21:36:57.210Z,394.02
2022-11-05T21:39:23.788Z,396.80
2022-11-05T21:41:50.364Z,401.58
2022-11-05T21:44:16.931Z,404.00
2022-11-05T21:46:43.528Z,415.75
2022-11-05T21:49:10.299Z,410.08
2022-11-05T21:51:55.442Z,404.35
2022-11-05T21:54:40.683Z,405.92
2022-11-05T21:57:32.011Z,397.25
2022-11-05T22:00:00.546Z,399.90
2022-11-05T22:02:28.643Z,393.15
2022-11-05T22:04:57.437Z,412.73
2022-11-05T22:07:27.633Z,418.73
2022-11-05T22:09:54.551Z,427.53
2022-11-05T22:12:21.520Z,427.88
2022-11-05T22:14:48.139Z,431.83
2022-11-05T22:17:14.954Z,436.08
2022-11-05T22:19:41.561Z,423.70
2022-11-05T22:22:08.763Z,440.52
2022-11-05T22:24:36.106Z,430.55
2022-11-05T22:27:05.366Z,425.35
2022-11-05T22:29:32.009Z,423.23
2022-11-05T22:31:58.571Z,429.88
2022-11-05T22:34:25.916Z,442.45
2022-11-05T22:36:52.990Z,439.50
2022-11-05T22:39:20.104Z,430.33
2022-11-05T22:41:47.001Z,428.65
2022-11-05T22:44:14.205Z,438.75
2022-11-05T22:46:41.676Z,428.75
2022-11-05T22:49:08.234Z,426.40
2022-11-05T22:51:36.836Z,417.13
2022-11-05T22:54:04.103Z,439.83
2022-11-05T22:56:33.023Z,434.33
2022-11-05T22:59:00.018Z,432.10
2022-11-05T23:01:27.877Z,412.55
2022-11-05T23:03:57.311Z,417.15
2022-11-05T23:06:44.665Z,418.48
2022-11-05T23:09:36.782Z,429.25
2022-11-05T23:12:06.665Z,426.17
2022-11-05T23:14:33.178Z,428.13
2022-11-05T23:17:18.307Z,411.08
2022-11-05T23:20:03.581Z,411.75
2022-11-05T23:22:50.051Z,408.40
2022-11-05T23:25:21.843Z,416.50
2022-11-05T23:27:50.718Z,416.70
2022-11-05T23:30:22.605Z,415.75
2022-11-05T23:32:49.865Z,422.75
2022-11-05T23:35:16.503Z,430.05
2022-11-05T23:38:01.593Z,434.98
2022-11-05T23:40:30.925Z,439.75
2022-11-05T23:43:16.136Z,444.17
2022-11-05T23:46:03.327Z,446.88
2022-11-05T23:48:33.389Z,442.00
2022-11-05T23:51:06.137Z,449.40
2022-11-05T23:53:34.650Z,447.20
2022-11-05T23:56:08.815Z,446.20
2022-11-05T23:58:36.832Z,452.77
